Time;durP1;ratioP1;P1;durP2;ratioP2;P2;SDS_P1;SDS_P2;PMS_P1;PMS_P2;Temp;Humidity;BMP_temperature;BMP_pressure;BME280_temperature;BME280_humidity;BME280_pressure;Samples;Min_cycle;Max_cycle;Signal;HPM_P1;HPM_P2
2022/09/12 00:01:51;;;;;;;38.63;30.83;;;;;;;11.26;100.00;101631.50;5116407;28;20137;-45
2022/09/12 00:04:16;;;;;;;32.30;28.10;;;;;;;11.22;100.00;101633.88;5115967;28;20028;-44
2022/09/12 00:06:41;;;;;;;30.85;25.90;;;;;;;11.13;100.00;101624.06;5115388;28;20389;-45
2022/09/12 00:09:09;;;;;;;30.92;26.98;;;;;;;11.15;100.00;101628.47;5116105;28;20026;-44
2022/09/12 00:11:36;;;;;;;33.20;27.42;;;;;;;11.06;100.00;101625.53;5115936;28;20028;-45
2022/09/12 00:14:02;;;;;;;30.08;25.92;;;;;;;10.99;100.00;101618.38;5114961;28;20532;-47
2022/09/12 00:16:30;;;;;;;33.50;27.10;;;;;;;10.99;100.00;101615.81;5115818;28;20023;-43
2022/09/12 00:18:55;;;;;;;34.22;29.08;;;;;;;11.14;100.00;101620.69;5115745;28;20027;-44
2022/09/12 00:21:21;;;;;;;27.30;24.30;;;;;;;10.95;100.00;101616.47;5114705;28;20028;-43
2022/09/12 00:23:47;;;;;;;30.77;25.20;;;;;;;11.01;100.00;101606.41;5115940;28;20115;-46
2022/09/12 00:26:13;;;;;;;29.23;24.33;;;;;;;10.93;100.00;101615.56;5115719;27;20103;-43
2022/09/12 00:28:40;;;;;;;29.27;24.13;;;;;;;10.87;100.00;101611.00;5114965;28;20042;-43
2022/09/12 00:31:08;;;;;;;25.80;22.88;;;;;;;10.76;100.00;101609.72;5115558;28;20080;-44
2022/09/12 00:33:34;;;;;;;28.45;22.33;;;;;;;10.73;100.00;101605.31;5115480;28;20028;-43
2022/09/12 00:36:04;;;;;;;30.88;25.17;;;;;;;10.84;100.00;101613.47;5114774;28;20024;-43
2022/09/12 00:38:29;;;;;;;35.28;28.50;;;;;;;10.89;100.00;101605.94;5115420;28;20035;-45
2022/09/12 00:40:55;;;;;;;31.42;26.83;;;;;;;10.84;100.00;101604.03;5115077;27;20020;-43
2022/09/12 00:43:26;;;;;;;30.98;26.38;;;;;;;10.77;100.00;101602.03;5114707;28;20043;-44
2022/09/12 00:45:53;;;;;;;31.98;27.42;;;;;;;10.69;100.00;101598.25;5115469;28;20048;-43
2022/09/12 00:48:27;;;;;;;37.17;30.13;;;;;;;10.83;100.00;101601.41;5114318;28;20032;-44
2022/09/12 00:50:52;;;;;;;38.63;31.23;;;;;;;10.80;100.00;101602.16;5115457;28;20031;-44
2022/09/12 00:53:18;;;;;;;34.75;29.38;;;;;;;10.75;100.00;101589.91;5114969;28;20023;-44
2022/09/12 00:55:48;;;;;;;41.53;33.60;;;;;;;10.73;100.00;101595.00;5114304;28;20024;-45
2022/09/12 00:58:19;;;;;;;42.13;31.67;;;;;;;10.69;100.00;101587.94;5114953;28;20130;-43
2022/09/12 01:00:46;;;;;;;36.60;30.30;;;;;;;10.63;100.00;101585.13;5115025;28;20113;-44
2022/09/12 01:03:14;;;;;;;39.22;32.97;;;;;;;10.65;100.00;101578.31;5114092;28;20028;-43
2022/09/12 01:05:43;;;;;;;41.95;34.53;;;;;;;10.69;100.00;101580.19;5114947;28;20023;-45
2022/09/12 01:08:09;;;;;;;51.10;39.08;;;;;;;10.66;100.00;101582.66;5114979;28;20036;-43
2022/09/12 01:10:37;;;;;;;48.53;39.08;;;;;;;10.70;100.00;101579.38;5114021;28;20019;-45
2022/09/12 01:13:05;;;;;;;46.63;37.35;;;;;;;10.67;100.00;101587.88;5114657;28;20043;-45
2022/09/12 01:15:30;;;;;;;57.90;42.25;;;;;;;10.72;100.00;101577.75;5114491;28;20024;-45
2022/09/12 01:18:37;;;;;;;50.28;38.25;;;;;;;10.67;100.00;101581.84;5114043;28;20020;-43
2022/09/12 01:21:24;;;;;;;43.55;35.10;;;;;;;10.65;100.00;101580.91;5069421;28;20043;-43
2022/09/12 01:24:11;;;;;;;57.55;44.28;;;;;;;10.70;100.00;101575.13;5113769;28;20036;-44
2022/09/12 01:26:57;;;;;;;52.45;40.28;;;;;;;10.73;100.00;101574.38;5114721;28;20104;-45
2022/09/12 01:29:51;;;;;;;45.33;36.00;;;;;;;10.61;100.00;101569.56;5114424;28;20116;-43
2022/09/12 01:32:48;;;;;;;46.85;35.63;;;;;;;10.48;100.00;101568.22;5113422;28;20028;-43
2022/09/12 01:35:20;;;;;;;42.50;34.28;;;;;;;10.41;100.00;101560.16;5114377;28;20092;-44
2022/09/12 01:37:57;;;;;;;42.33;34.95;;;;;;;10.42;100.00;101560.22;5113558;28;20032;-44
2022/09/12 01:40:38;;;;;;;46.38;37.53;;;;;;;10.46;100.00;101556.94;5113902;28;20024;-45
2022/09/12 01:43:17;;;;;;;47.78;37.00;;;;;;;10.49;100.00;101551.91;5114413;28;20110;-43
2022/09/12 01:45:49;;;;;;;45.08;36.92;;;;;;;10.40;100.00;101543.81;5113561;28;20036;-44
2022/09/12 01:48:19;;;;;;;41.92;34.38;;;;;;;10.35;100.00;101547.84;5114065;28;20038;-43
2022/09/12 01:51:29;;;;;;;45.80;34.97;;;;;;;10.34;100.00;101546.09;5114082;28;20038;-45
2022/09/12 01:54:05;;;;;;;59.00;41.47;;;;;;;10.47;100.00;101553.56;5082096;28;20536;-43
2022/09/12 01:56:34;;;;;;;55.50;41.95;;;;;;;10.47;100.00;101545.84;5113983;28;20024;-45
2022/09/12 01:59:06;;;;;;;60.13;41.95;;;;;;;10.47;100.00;101545.84;5113073;28;20479;-43
2022/09/12 02:01:35;;;;;;;55.92;42.78;;;;;;;10.45;100.00;101537.16;5113829;28;20552;-43
2022/09/12 02:04:13;;;;;;;58.88;43.08;;;;;;;10.53;100.00;101540.94;5113869;28;20098;-44
2022/09/12 02:06:53;;;;;;;69.30;47.95;;;;;;;10.56;100.00;101537.59;5113045;28;20106;-43
2022/09/12 02:09:53;;;;;;;57.92;42.03;;;;;;;10.55;100.00;101525.53;5113562;28;20035;-48
2022/09/12 02:12:26;;;;;;;43.25;34.47;;;;;;;10.29;100.00;101526.97;5086437;28;20495;-43
2022/09/12 02:14:58;;;;;;;41.55;33.75;;;;;;;10.24;100.00;101529.38;5113792;28;20032;-46
2022/09/12 02:17:25;;;;;;;52.53;38.05;;;;;;;10.37;100.00;101523.06;5113325;28;20383;-43
2022/09/12 02:20:05;;;;;;;44.28;35.95;;;;;;;10.34;100.00;101525.47;5112892;28;20027;-45
2022/09/12 02:22:35;;;;;;;42.42;34.03;;;;;;;10.29;100.00;101514.09;5113633;28;20027;-44
2022/09/12 02:25:03;;;;;;;53.55;39.20;;;;;;;10.30;100.00;101515.88;5113684;28;20024;-43
2022/09/12 02:27:36;;;;;;;50.67;39.47;;;;;;;10.26;100.00;101521.72;5112674;28;20092;-44
2022/09/12 02:30:04;;;;;;;57.13;41.53;;;;;;;10.33;100.00;101523.75;5113661;28;20024;-44
2022/09/12 02:33:22;;;;;;;61.85;45.03;;;;;;;10.33;100.00;101526.31;5113293;28;20466;-45
2022/09/12 02:35:57;;;;;;;64.57;44.38;;;;;;;10.30;100.00;101532.22;5078215;28;20421;-45
2022/09/12 02:38:34;;;;;;;52.67;39.63;;;;;;;10.29;100.00;101525.31;5113160;28;20066;-45
2022/09/12 02:40:59;;;;;;;42.35;35.10;;;;;;;10.16;100.00;101523.91;5112569;28;20034;-44
2022/09/12 02:43:25;;;;;;;41.83;33.67;;;;;;;10.12;100.00;101531.44;5113051;28;20099;-45
2022/09/12 02:45:50;;;;;;;48.55;37.95;;;;;;;10.19;100.00;101534.31;5113489;28;20381;-47
2022/09/12 02:48:22;;;;;;;48.67;36.15;;;;;;;10.16;100.00;101529.06;5112277;28;20024;-43
2022/09/12 02:50:47;;;;;;;58.35;41.10;;;;;;;10.20;100.00;101527.50;5113380;28;20054;-44
2022/09/12 02:53:13;;;;;;;58.53;43.45;;;;;;;10.19;100.00;101529.19;5112923;28;20059;-46
2022/09/12 02:55:40;;;;;;;44.80;34.95;;;;;;;10.07;100.00;101518.38;5112353;28;20036;-43
2022/09/12 02:58:16;;;;;;;53.28;40.22;;;;;;;10.15;100.00;101509.25;5112986;28;20425;-44
2022/09/12 03:01:11;;;;;;;59.22;43.95;;;;;;;10.21;100.00;101509.53;5113319;28;20020;-48
2022/09/12 03:04:13;;;;;;;59.05;43.70;;;;;;;10.24;100.00;101506.19;5112295;28;20100;-46
2022/09/12 03:06:56;;;;;;;52.35;39.13;;;;;;;10.14;100.00;101506.63;5117284;28;20042;-43
2022/09/12 03:09:46;;;;;;;56.05;39.63;;;;;;;10.18;100.00;101501.66;5116329;28;20386;-43
2022/09/12 03:12:40;;;;;;;52.00;40.60;;;;;;;10.17;100.00;101499.91;5116872;28;20024;-45
2022/09/12 03:15:30;;;;;;;54.58;40.78;;;;;;;10.19;100.00;101494.81;5117127;28;20030;-43
2022/09/12 03:18:39;;;;;;;53.75;41.35;;;;;;;10.17;100.00;101499.91;5116177;28;20489;-43
2022/09/12 03:21:16;;;;;;;48.55;36.72;;;;;;;10.16;100.00;101508.44;5117032;28;20027;-44
2022/09/12 03:24:03;;;;;;;50.05;39.35;;;;;;;10.19;100.00;101500.84;5116478;28;20076;-45
2022/09/12 03:26:36;;;;;;;43.80;34.55;;;;;;;10.07;100.00;101492.63;5116857;28;20028;-43
2022/09/12 03:29:04;;;;;;;40.90;32.97;;;;;;;10.04;100.00;101492.47;5116935;28;20019;-45
2022/09/12 03:31:30;;;;;;;51.35;36.95;;;;;;;10.17;100.00;101491.28;5116122;28;20024;-44
2022/09/12 03:33:56;;;;;;;47.90;37.60;;;;;;;10.19;100.00;101494.81;5116784;28;20076;-44
2022/09/12 03:36:24;;;;;;;45.05;34.88;;;;;;;10.13;100.00;101491.97;5113803;28;20386;-46
2022/09/12 03:38:49;;;;;;;42.60;34.00;;;;;;;10.10;100.00;101485.00;5114536;28;20039;-43
2022/09/12 03:41:14;;;;;;;45.53;36.13;;;;;;;10.09;100.00;101490.97;5116161;28;20015;-45
2022/09/12 03:43:40;;;;;;;48.25;36.97;;;;;;;10.15;100.00;101492.94;5116745;28;20039;-45
2022/09/12 03:46:05;;;;;;;54.38;38.97;;;;;;;10.21;100.00;101494.06;5114803;28;20023;-43
2022/09/12 03:48:31;;;;;;;44.63;35.20;;;;;;;10.15;100.00;101486.09;5115780;28;20036;-43
2022/09/12 03:51:01;;;;;;;55.97;39.92;;;;;;;10.18;100.00;101486.19;5115791;28;20028;-46
2022/09/12 03:53:26;;;;;;;55.97;38.67;;;;;;;10.25;100.00;101486.44;5116308;28;20111;-44
2022/09/12 03:55:51;;;;;;;52.10;39.15;;;;;;;10.22;100.00;101489.78;5116257;28;20124;-44
2022/09/12 03:58:17;;;;;;;52.72;37.90;;;;;;;10.19;100.00;101493.13;5115457;28;20363;-43
2022/09/12 04:00:43;;;;;;;49.30;38.05;;;;;;;10.22;100.00;101487.22;5116313;28;20031;-45
2022/09/12 04:03:08;;;;;;;48.20;36.17;;;;;;;10.10;100.00;101482.44;5115875;28;20418;-43
2022/09/12 04:05:34;;;;;;;45.78;34.38;;;;;;;10.09;100.00;101474.66;5115457;28;20019;-44
2022/09/12 04:07:59;;;;;;;47.17;35.97;;;;;;;10.13;100.00;101477.41;5116091;28;20016;-45
2022/09/12 04:10:24;;;;;;;49.55;37.88;;;;;;;10.12;100.00;101478.25;5115749;28;20445;-45
2022/09/12 04:12:50;;;;;;;42.40;33.15;;;;;;;10.09;100.00;101470.38;5115414;28;20015;-43
2022/09/12 04:15:15;;;;;;;51.55;37.28;;;;;;;10.10;100.00;101473.84;5115368;28;20019;-45
2022/09/12 04:17:41;;;;;;;58.38;41.25;;;;;;;10.15;100.00;101462.91;5115676;27;20058;-45
2022/09/12 04:20:06;;;;;;;60.75;43.33;;;;;;;10.14;100.00;101468.84;5114972;28;20016;-44
2022/09/12 04:22:32;;;;;;;59.15;42.10;;;;;;;10.21;100.00;101465.72;5115785;28;20023;-44
2022/09/12 04:24:57;;;;;;;51.08;38.25;;;;;;;10.20;100.00;101461.38;5115758;28;20381;-44
2022/09/12 04:27:23;;;;;;;55.38;41.28;;;;;;;10.20;100.00;101463.97;5114628;28;20371;-45
2022/09/12 04:29:48;;;;;;;55.95;39.60;;;;;;;10.20;100.00;101458.81;5115632;28;20063;-44
2022/09/12 04:32:13;;;;;;;59.58;41.22;;;;;;;10.25;100.00;101465.84;5115505;28;20378;-43
2022/09/12 04:34:39;;;;;;;53.90;39.90;;;;;;;10.24;100.00;101459.81;5114851;28;20020;-45
2022/09/12 04:37:04;;;;;;;55.28;39.80;;;;;;;10.28;100.00;101460.84;5115407;28;20034;-46
2022/09/12 04:39:29;;;;;;;54.45;39.13;;;;;;;10.30;100.00;101454.03;5115257;28;20031;-45
2022/09/12 04:41:55;;;;;;;54.33;39.10;;;;;;;10.27;100.00;101451.34;5114934;27;20028;-45
2022/09/12 04:44:20;;;;;;;51.35;37.15;;;;;;;10.26;100.00;101458.16;5115056;28;20414;-45
2022/09/12 04:46:46;;;;;;;60.22;40.63;;;;;;;10.31;100.00;101456.66;5115499;27;20031;-44
2022/09/12 04:49:13;;;;;;;52.30;38.72;;;;;;;10.30;100.00;101448.88;5114478;28;20411;-43
2022/09/12 04:51:39;;;;;;;65.15;41.85;;;;;;;10.35;100.00;101448.28;5115127;28;20023;-45
2022/09/12 04:54:17;;;;;;;64.32;43.80;;;;;;;10.40;100.00;101445.88;5115013;28;20128;-44
2022/09/12 04:56:47;;;;;;;61.72;43.45;;;;;;;10.37;100.00;101443.19;5115231;28;20092;-43
2022/09/12 04:59:14;;;;;;;63.30;44.22;;;;;;;10.43;100.00;101451.19;5115071;28;20034;-46
2022/09/12 05:01:40;;;;;;;65.38;45.35;;;;;;;10.46;100.00;101445.28;5114149;28;20445;-45
2022/09/12 05:04:05;;;;;;;70.85;49.42;;;;;;;10.52;100.00;101456.69;5114867;28;20478;-44
2022/09/12 05:06:36;;;;;;;75.20;48.90;;;;;;;10.56;100.00;101454.22;5114807;28;20024;-44
2022/09/12 05:09:03;;;;;;;70.18;47.22;;;;;;;10.60;100.00;101463.84;5114165;28;20038;-45
2022/09/12 05:11:31;;;;;;;76.13;50.05;;;;;;;10.64;100.00;101461.44;5114697;28;20042;-43
2022/09/12 05:13:57;;;;;;;73.90;49.63;;;;;;;10.62;100.00;101459.63;5114886;28;20069;-44
2022/09/12 05:16:24;;;;;;;81.90;52.13;;;;;;;10.66;100.00;101458.91;5113809;28;20028;-47
2022/09/12 05:18:49;;;;;;;73.32;50.85;;;;;;;10.68;100.00;101452.13;5114536;27;20478;-47
2022/09/12 05:21:18;;;;;;;79.25;51.63;;;;;;;10.72;100.00;101451.44;5114321;28;20023;-43
2022/09/12 05:23:44;;;;;;;84.28;51.88;;;;;;;10.79;100.00;101453.41;5114104;28;20024;-44
2022/09/12 05:26:15;;;;;;;72.90;48.17;;;;;;;10.75;100.00;101455.81;5114161;28;20156;-44
2022/09/12 05:28:41;;;;;;;66.38;47.45;;;;;;;10.79;100.00;101460.28;5113996;28;20020;-44
2022/09/12 05:31:07;;;;;;;71.70;47.75;;;;;;;10.79;100.00;101458.56;5104578;28;20023;-44
2022/09/12 05:33:34;;;;;;;74.55;48.63;;;;;;;10.76;100.00;101460.16;5092193;28;20440;-44
2022/09/12 05:36:01;;;;;;;74.18;49.13;;;;;;;10.80;100.00;101457.75;5091878;28;20082;-45
2022/09/12 05:38:28;;;;;;;80.95;51.53;;;;;;;10.84;100.00;101456.19;5092083;28;20024;-44
2022/09/12 05:41:02;;;;;;;73.82;48.65;;;;;;;10.84;100.00;101457.03;5093858;28;20024;-43
2022/09/12 05:43:28;;;;;;;80.43;51.72;;;;;;;10.93;100.00;101458.22;5092893;28;20028;-45
2022/09/12 05:46:03;;;;;;;75.85;49.90;;;;;;;10.91;100.00;101465.03;5093837;28;20028;-43
2022/09/12 05:48:28;;;;;;;65.85;45.55;;;;;;;10.91;100.00;101465.03;5093741;28;20054;-44
2022/09/12 05:51:01;;;;;;;77.13;49.00;;;;;;;10.94;100.00;101467.72;5093105;28;20059;-44
2022/09/12 05:53:29;;;;;;;77.03;51.00;;;;;;;10.99;100.00;101469.66;5093823;28;20070;-43
2022/09/12 05:56:06;;;;;;;77.63;52.08;;;;;;;11.02;100.00;101459.44;5093635;28;20510;-44
2022/09/12 05:58:33;;;;;;;74.80;49.75;;;;;;;11.10;100.00;101467.47;5092570;28;20024;-43
2022/09/12 06:01:07;;;;;;;73.37;47.87;;;;;;;11.10;100.00;101462.31;5093462;28;20032;-45
2022/09/12 06:03:38;;;;;;;73.95;50.88;;;;;;;11.15;100.00;101476.25;5093386;28;20636;-43
2022/09/12 06:06:05;;;;;;;74.03;50.42;;;;;;;11.18;100.00;101478.97;5092776;28;20020;-44
2022/09/12 06:08:32;;;;;;;76.13;49.30;;;;;;;11.25;100.00;101471.47;5093377;28;20039;-43
2022/09/12 06:11:02;;;;;;;78.80;51.15;;;;;;;11.29;100.00;101478.50;5093407;28;20028;-44
2022/09/12 06:13:31;;;;;;;70.45;49.13;;;;;;;11.31;100.00;101477.72;5092536;28;20543;-43
2022/09/12 06:16:02;;;;;;;78.50;50.60;;;;;;;11.34;100.00;101471.78;5093364;28;20386;-45
2022/09/12 06:18:27;;;;;;;72.05;48.67;;;;;;;11.35;100.00;101470.97;5093320;28;20024;-47
2022/09/12 06:20:52;;;;;;;73.20;50.78;;;;;;;11.36;100.00;101470.13;5092564;28;20060;-45
2022/09/12 06:23:17;;;;;;;73.68;50.88;;;;;;;11.38;100.00;101468.50;5092986;28;20421;-46
2022/09/12 06:25:48;;;;;;;72.45;48.13;;;;;;;11.38;100.00;101472.78;5092225;28;20024;-45
2022/09/12 06:28:13;;;;;;;78.40;51.28;;;;;;;11.38;100.00;101467.63;5093200;28;20024;-43
2022/09/12 06:30:38;;;;;;;75.68;50.95;;;;;;;11.39;100.00;101472.84;5093147;28;20104;-47
2022/09/12 06:33:04;;;;;;;75.90;51.80;;;;;;;11.39;100.00;101462.50;5092142;28;20028;-45
2022/09/12 06:35:29;;;;;;;75.03;51.55;;;;;;;11.40;100.00;101461.69;5093024;28;20466;-43
2022/09/12 06:37:54;;;;;;;76.93;51.25;;;;;;;11.42;100.00;101467.78;5092757;28;20035;-43
2022/09/12 06:40:20;;;;;;;79.93;52.30;;;;;;;11.42;100.00;101465.19;5092044;28;20035;-43
2022/09/12 06:42:45;;;;;;;78.93;53.00;;;;;;;11.47;100.00;101466.25;5092883;28;20455;-43
2022/09/12 06:45:10;;;;;;;77.53;52.03;;;;;;;11.49;100.00;101467.19;5092667;28;20541;-44
2022/09/12 06:47:36;;;;;;;71.20;50.00;;;;;;;11.53;100.00;101463.88;5092225;28;20024;-45
2022/09/12 06:50:01;;;;;;;78.40;54.42;;;;;;;11.62;100.00;101463.34;5092772;28;20456;-43
2022/09/12 06:52:28;;;;;;;76.75;53.58;;;;;;;11.70;100.00;101466.19;5092698;28;20035;-47
2022/09/12 06:54:53;;;;;;;81.35;56.75;;;;;;;11.88;100.00;101465.94;5092123;28;20028;-44
2022/09/12 06:57:18;;;;;;;84.13;56.05;;;;;;;12.01;100.00;101462.97;5092520;28;20059;-43
2022/09/12 06:59:43;;;;;;;81.53;55.80;;;;;;;12.13;100.00;101462.50;5092958;28;20052;-43
2022/09/12 07:02:09;;;;;;;79.53;54.03;;;;;;;12.29;100.00;101463.00;5091947;28;20040;-44
2022/09/12 07:04:35;;;;;;;69.72;49.80;;;;;;;12.39;100.00;101465.06;5092878;28;20035;-43
2022/09/12 07:07:01;;;;;;;66.25;48.60;;;;;;;12.43;100.00;101460.88;5092712;28;20044;-44
2022/09/12 07:09:28;;;;;;;59.40;46.42;;;;;;;12.44;100.00;101460.91;5091968;28;20117;-44
2022/09/12 07:11:53;;;;;;;66.73;50.50;;;;;;;12.52;100.00;101461.16;5092993;28;20085;-44
2022/09/12 07:14:18;;;;;;;67.90;50.58;;;;;;;12.65;100.00;101449.47;5092406;28;20059;-43
2022/09/12 07:16:44;;;;;;;69.50;51.17;;;;;;;12.80;100.00;101457.69;5092059;28;20359;-43
2022/09/12 07:19:10;;;;;;;65.22;49.72;;;;;;;12.93;100.00;101453.78;5092456;28;20111;-44
2022/09/12 07:21:38;;;;;;;64.82;47.38;;;;;;;12.93;100.00;101448.59;5092591;28;20070;-43
2022/09/12 07:24:04;;;;;;;62.13;49.92;;;;;;;13.02;100.00;101448.00;5091737;28;20025;-44
2022/09/12 07:26:30;;;;;;;60.15;49.38;;;;;;;13.11;100.00;101442.22;5091480;28;20071;-45
2022/09/12 07:28:56;;;;;;;59.55;46.83;;;;;;;13.31;100.00;101442.75;5090822;28;20036;-45
2022/09/12 07:31:24;;;;;;;56.40;46.05;;;;;;;13.43;100.00;101445.75;5100341;28;20480;-48
2022/09/12 07:33:50;;;;;;;59.20;47.58;;;;;;;13.63;100.00;101448.00;5112014;28;20046;-44
2022/09/12 07:36:18;;;;;;;65.68;48.92;;;;;;;13.76;100.00;101454.38;5111164;28;20357;-45
2022/09/12 07:38:43;;;;;;;55.25;45.05;;;;;;;13.79;100.00;101455.34;5101200;28;20021;-42
2022/09/12 07:41:20;;;;;;;51.67;42.17;;;;;;;13.85;100.00;101458.91;5108853;28;20038;-42
2022/09/12 07:43:46;;;;;;;47.67;40.38;;;;;;;13.94;100.00;101459.16;5097020;28;20040;-42
2022/09/12 07:46:13;;;;;;;48.90;40.15;;;;;;;14.05;100.00;101456.84;5104411;28;20439;-44
2022/09/12 07:48:39;;;;;;;49.35;41.45;;;;;;;14.20;100.00;101459.78;5112539;28;20463;-44
2022/09/12 07:51:07;;;;;;;45.40;37.38;;;;;;;14.28;100.00;101459.97;5106186;28;20091;-44
2022/09/12 07:53:40;;;;;;;46.53;39.22;;;;;;;14.47;100.00;101459.59;5100355;28;20039;-43
2022/09/12 07:56:07;;;;;;;46.83;39.42;;;;;;;14.57;100.00;101463.25;5099172;28;20027;-43
2022/09/12 07:58:35;;;;;;;43.40;35.17;;;;;;;14.72;100.00;101467.06;5101587;28;20036;-44
2022/09/12 08:01:05;;;;;;;41.15;34.95;;;;;;;14.82;100.00;101462.16;5116106;28;20043;-42
2022/09/12 08:03:30;;;;;;;42.00;32.88;;;;;;;15.00;100.00;101468.56;5106189;27;20371;-46
2022/09/12 08:06:13;;;;;;;44.65;32.92;;;;;;;15.09;100.00;101463.59;5102168;28;20019;-42
2022/09/12 08:08:39;;;;;;;39.88;32.72;;;;;;;15.23;100.00;101460.38;5116134;28;20028;-42
2022/09/12 08:11:08;;;;;;;39.80;32.17;;;;;;;15.38;100.00;101459.81;5112464;28;20039;-44
2022/09/12 08:13:35;;;;;;;37.50;30.90;;;;;;;15.45;100.00;101461.69;5104806;28;20055;-45
2022/09/12 08:16:03;;;;;;;34.42;29.35;;;;;;;15.56;100.00;101464.50;5100564;28;20485;-46
2022/09/12 08:18:31;;;;;;;37.25;30.25;;;;;;;15.88;100.00;101466.81;5095180;28;20395;-43
2022/09/12 08:21:00;;;;;;;;;;;;;;;15.88;100.00;101466.81;5102318;28;20035;-45
2022/09/12 08:23:27;;;;;;;36.22;29.42;;;;;;;16.10;100.00;101463.75;5105402;28;19954;-43
2022/09/12 08:25:57;;;;;;;33.50;27.75;;;;;;;16.14;100.00;101464.69;5108554;28;20463;-43
2022/09/12 08:28:23;;;;;;;30.02;25.52;;;;;;;16.29;100.00;101469.25;5104456;28;20490;-44
2022/09/12 08:30:49;;;;;;;29.83;24.92;;;;;;;16.36;100.00;101473.69;5101841;28;20475;-43
2022/09/12 08:33:14;;;;;;;32.05;24.85;;;;;;;16.46;100.00;101477.31;5113366;28;20081;-45
2022/09/12 08:35:40;;;;;;;30.20;24.45;;;;;;;16.56;99.60;101471.38;5112591;28;20028;-44
2022/09/12 08:38:05;;;;;;;29.48;24.08;;;;;;;16.77;99.56;101472.56;5108953;27;20028;-45
2022/09/12 08:40:37;;;;;;;28.70;23.67;;;;;;;16.95;97.64;101472.84;5103779;28;20039;-44
2022/09/12 08:43:18;;;;;;;29.05;24.35;;;;;;;17.08;98.05;101476.50;5114955;28;20038;-44
2022/09/12 08:46:01;;;;;;;28.95;23.65;;;;;;;17.42;97.74;101474.28;5115152;28;20062;-43
2022/09/12 08:48:26;;;;;;;26.83;22.25;;;;;;;17.52;95.45;101474.38;5109649;28;20111;-46
2022/09/12 08:50:52;;;;;;;29.42;22.73;;;;;;;17.70;95.12;101471.09;5113858;28;20114;-45
2022/09/12 08:53:23;;;;;;;26.38;21.58;;;;;;;17.77;91.34;101470.31;5112612;28;20023;-45
2022/09/12 08:55:59;;;;;;;28.60;21.20;;;;;;;17.90;92.29;101479.13;5113573;28;20035;-45
2022/09/12 08:58:27;;;;;;;26.25;22.08;;;;;;;18.01;91.66;101468.81;5113455;28;20019;-44
2022/09/12 09:01:11;;;;;;;26.17;21.08;;;;;;;18.22;92.88;101470.75;5113845;28;20020;-44
2022/09/12 09:03:46;;;;;;;24.70;21.02;;;;;;;18.42;90.82;101463.94;5114452;28;20035;-44
2022/09/12 09:06:38;;;;;;;24.65;20.35;;;;;;;18.48;92.10;101475.28;5114448;27;20032;-43
2022/09/12 09:09:47;;;;;;;25.10;19.58;;;;;;;18.72;90.37;101462.38;5107538;28;20368;-44
2022/09/12 09:12:43;;;;;;;24.77;18.67;;;;;;;18.91;85.80;101467.72;5095271;28;20422;-48
2022/09/12 09:15:20;;;;;;;22.67;18.27;;;;;;;19.13;83.43;101462.59;5103397;28;20489;-44
2022/09/12 09:18:18;;;;;;;21.65;17.27;;;;;;;19.21;82.45;101458.25;5111668;27;20071;-44
2022/09/12 09:20:53;;;;;;;21.33;17.42;;;;;;;19.47;80.77;101450.50;5104921;28;20506;-45
2022/09/12 09:23:29;;;;;;;19.75;14.65;;;;;;;19.64;79.84;101450.53;5113003;28;20494;-45
2022/09/12 09:26:13;;;;;;;18.10;14.77;;;;;;;19.71;78.17;101449.66;5112063;28;20051;-45
2022/09/12 09:28:45;;;;;;;19.13;15.05;;;;;;;19.93;78.29;101457.56;5108439;28;20020;-44
2022/09/12 09:31:23;;;;;;;15.93;13.57;;;;;;;20.04;77.07;101449.75;5106635;28;20040;-43
2022/09/12 09:33:50;;;;;;;18.88;14.50;;;;;;;20.09;73.97;101447.09;5108347;28;20028;-46
2022/09/12 09:36:18;;;;;;;;;;;;;;;20.32;80.76;101445.34;5095806;28;20034;-45
2022/09/12 09:39:08;;;;;;;17.77;12.43;;;;;;;20.91;77.09;101453.09;5099962;28;19915;-45
2022/09/12 09:41:55;;;;;;;16.85;12.18;;;;;;;21.22;71.66;101452.94;5103881;28;20035;-47
2022/09/12 09:44:20;;;;;;;16.30;12.70;;;;;;;21.27;69.16;101443.31;5101632;28;20521;-44
2022/09/12 09:46:52;;;;;;;15.77;11.70;;;;;;;21.70;67.87;101444.81;5111649;28;20034;-46
2022/09/12 09:49:17;;;;;;;14.60;11.60;;;;;;;22.13;66.09;101446.22;5098422;28;20384;-44
2022/09/12 09:51:43;;;;;;;13.02;9.63;;;;;;;22.53;64.24;101432.75;5110621;28;20020;-45
2022/09/12 09:54:22;;;;;;;12.02;10.50;;;;;;;23.00;63.06;101430.44;5103801;28;20036;-44
2022/09/12 09:56:47;;;;;;;13.60;10.48;;;;;;;23.32;60.57;101424.78;5108426;28;20030;-44
2022/09/12 09:59:24;;;;;;;12.73;9.50;;;;;;;23.87;58.43;101423.94;5107854;28;20036;-44
2022/09/12 10:01:56;;;;;;;16.00;10.55;;;;;;;23.93;56.96;101418.59;5113386;28;20053;-44
2022/09/12 10:04:28;;;;;;;12.32;9.65;;;;;;;24.25;55.28;101418.03;5101540;28;20028;-46
2022/09/12 10:06:57;;;;;;;12.25;9.02;;;;;;;24.79;54.04;101413.50;5107204;28;20024;-45
2022/09/12 10:09:33;;;;;;;12.85;9.38;;;;;;;25.13;54.07;101416.28;5097073;28;20035;-47
2022/09/12 10:12:18;;;;;;;14.18;10.52;;;;;;;25.25;51.86;101412.50;5103597;28;20024;-45
2022/09/12 10:14:55;;;;;;;11.80;8.85;;;;;;;25.17;51.54;101409.16;5104334;28;20114;-46
2022/09/12 10:17:42;;;;;;;11.32;8.20;;;;;;;25.73;54.25;101410.53;5100480;28;20118;-45
2022/09/12 10:20:45;;;;;;;12.75;9.05;;;;;;;25.72;53.35;101414.06;5103837;28;20028;-45
2022/09/12 10:23:33;;;;;;;10.80;7.68;;;;;;;25.89;53.24;101403.97;5098846;28;20028;-47
2022/09/12 10:26:02;;;;;;;11.55;8.27;;;;;;;26.01;49.35;101401.91;5105421;28;20027;-49
2022/09/12 10:28:36;;;;;;;10.68;7.57;;;;;;;26.66;48.95;101400.16;5104630;28;20027;-46
2022/09/12 10:31:03;;;;;;;10.95;7.85;;;;;;;26.72;46.27;101384.13;5111570;28;20064;-45
2022/09/12 10:33:30;;;;;;;9.80;7.47;;;;;;;26.60;46.50;101391.50;5093102;28;20028;-45
2022/09/12 10:36:02;;;;;;;9.85;7.18;;;;;;;26.59;44.48;101378.31;5096526;28;20020;-45
2022/09/12 10:38:31;;;;;;;9.25;5.82;;;;;;;26.58;43.92;101382.72;5100876;28;20115;-47
2022/09/12 10:41:04;;;;;;;7.78;5.53;;;;;;;26.31;44.80;101372.97;5092267;28;20051;-47
2022/09/12 10:43:32;;;;;;;7.80;5.25;;;;;;;25.92;44.83;101388.03;5092778;28;20073;-46
2022/09/12 10:46:18;;;;;;;8.35;5.47;;;;;;;25.83;44.63;101364.50;5103604;28;20089;-44
2022/09/12 10:48:46;;;;;;;9.95;6.22;;;;;;;26.03;45.10;101357.81;5099825;28;20028;-46
2022/09/12 10:51:20;;;;;;;7.18;5.85;;;;;;;26.13;46.26;101354.06;5100296;28;20032;-45
2022/09/12 10:53:46;;;;;;;7.78;5.63;;;;;;;26.48;45.53;101357.47;5091783;28;20036;-45
2022/09/12 10:56:17;;;;;;;9.52;6.22;;;;;;;26.83;44.87;101355.63;5103766;28;20440;-46
2022/09/12 10:58:54;;;;;;;9.35;6.22;;;;;;;27.11;46.17;101354.72;5097265;28;20544;-44
2022/09/12 11:01:32;;;;;;;8.60;5.28;;;;;;;27.31;43.80;101354.09;5102232;28;20122;-45
2022/09/12 11:04:26;;;;;;;6.28;4.55;;;;;;;27.35;44.48;101352.22;5095259;28;20031;-47
2022/09/12 11:06:54;;;;;;;8.82;5.00;;;;;;;26.89;41.55;101347.47;5092721;28;20428;-50
2022/09/12 11:09:31;;;;;;;8.63;5.45;;;;;;;26.97;42.51;101346.38;5092254;28;20023;-45
2022/09/12 11:12:11;;;;;;;9.82;6.78;;;;;;;26.65;42.54;101340.25;5092999;28;20025;-49
2022/09/12 11:15:10;;;;;;;8.07;5.40;;;;;;;27.28;43.48;101336.56;5091985;28;20036;-47
2022/09/12 11:17:45;;;;;;;10.27;5.90;;;;;;;27.36;41.83;101327.47;5092540;28;20024;-43
2022/09/12 11:20:10;;;;;;;9.57;6.13;;;;;;;27.05;41.99;101333.75;5092674;28;20031;-44
2022/09/12 11:23:23;;;;;;;7.18;4.93;;;;;;;27.40;43.05;101335.31;5091868;28;20100;-44
2022/09/12 11:26:23;;;;;;;11.23;4.78;;;;;;;27.28;43.69;101319.78;5060302;28;20047;-48